Terminal Aerodrome Forecast
Issued by NWS Pocatello, ID

Home | Current Version | Previous Version | Text Only | Print | Product List | Glossary On
Versions: 1 2 3 4 5 6 7 8 9 10 11 12 13
000
FTUS45 KPIH 211720
TAFBYI
TAF
KBYI 211720Z 2118/2218 02006KT P6SM FEW025 FEW100 SCT130
     FM211930 VRB04KT P6SM VCTS FEW035CB FEW130
     FM220000 VRB04KT P6SM VCTS SCT050CB BKN100 BKN180
     FM220400 25010KT P6SM FEW060 SCT100 SCT180
     FM220800 21006KT P6SM SCT060 SCT180=

USA.gov is the U.S. government's official web portal to all federal, state and local government web resources and services.